John M Carras — SVBK5 — position and weather

sailwx.info

Track history (hours):
 
Tides and Currents Weather Stations Pressure Air Temp Water Temp Dewpoint Dewpoint Depression Visibility Wind Speed Wind Dir Waves Ship Positions

John M Carras

Last reported at 2016-Jul-25 23:32 UTC. Time now 2016-Jul-28 10:30 UTC.
Position N 01°16' E 104°00'.

Length 229 m; draft 12.4 m.

Type: Ship. MMSI: 241150000.

Date/timePositionNaut miles runAvg speedWind from/ knotsBaromVisibWave heightAir tempDewpointWater temp
2016-Jul-25 23:32N 01°16' E 104°00'2 0.1
2016-Jul-25 12:32N 01°17' E 103°59'0 0.1
2016-Jul-25 10:20N 01°17' E 103°59'0 0.1
2016-Jul-25 09:14N 01°17' E 103°59'0 0.0
2016-Jul-25 07:09N 01°17' E 103°59'1 1.5
2016-Jul-25 06:30N 01°17' E 103°58'3 3.6
2016-Jul-25 05:33N 01°14' E 103°57'6 5.7
2016-Jul-25 04:33N 01°11' E 103°51'6 6.2
2016-Jul-25 03:33N 01°08' E 103°46'  
Track history (hours):
 
Tides and Currents Weather Stations Pressure Air Temp Water Temp Dewpoint Dewpoint Depression Visibility Wind Speed Wind Dir Waves Ship Positions

John M Carras

Last reported at 2016-Jul-25 23:32 UTC. Time now 2016-Jul-28 10:30 UTC.
Position N 01°16' E 104°00'.

Length 229 m; draft 12.4 m.

Type: Ship. MMSI: 241150000.

Date/timePositionNaut miles runAvg speedWind from/ knotsBaromVisibWave heightAir tempDewpointWater temp
2016-Jul-25 23:32N 01°16' E 104°00'2 0.1
2016-Jul-25 12:32N 01°17' E 103°59'0 0.1
2016-Jul-25 10:20N 01°17' E 103°59'0 0.1
2016-Jul-25 09:14N 01°17' E 103°59'0 0.0
2016-Jul-25 07:09N 01°17' E 103°59'1 1.5
2016-Jul-25 06:30N 01°17' E 103°58'3 3.6
2016-Jul-25 05:33N 01°14' E 103°57'6 5.7
2016-Jul-25 04:33N 01°11' E 103°51'6 6.2
2016-Jul-25 03:33N 01°08' E 103°46'  

Dump ship's entire track history